Time;durP1;ratioP1;P1;durP2;ratioP2;P2;SDS_P1;SDS_P2;PMS_P1;PMS_P2;Temp;Humidity;BMP_temperature;BMP_pressure;BME280_temperature;BME280_humidity;BME280_pressure;Samples;Min_cycle;Max_cycle;Signal;HPM_P1;HPM_P2
2023/12/22 00:00:56;;;;;;;1.43;0.43;;;;;;;;;;4977618;28;20038;-68
2023/12/22 00:03:22;;;;;;;6.87;2.13;;;;;;;;;;4979911;28;20250;-67
2023/12/22 00:05:47;;;;;;;3.25;0.60;;;;;;;;;;4976287;28;20289;-67
2023/12/22 00:08:12;;;;;;;7.88;2.25;;;;;;;;;;4977418;28;20062;-67
2023/12/22 00:10:37;;;;;;;6.50;1.00;;;;;;;;;;4976797;28;20045;-67
2023/12/22 00:13:02;;;;;;;7.55;2.78;;;;;;;;;;4979984;28;20253;-68
2023/12/22 00:15:28;;;;;;;11.77;1.20;;;;;;;;;;4982558;28;20030;-67
2023/12/22 00:17:53;;;;;;;12.27;1.13;;;;;;;;;;4977576;28;20030;-67
2023/12/22 00:20:19;;;;;;;11.05;2.28;;;;;;;;;;4982231;28;20030;-67
2023/12/22 00:22:44;;;;;;;16.02;1.10;;;;;;;;;;4970401;28;20030;-67
2023/12/22 00:25:09;;;;;;;7.32;0.82;;;;;;;;;;4971727;28;20031;-67
2023/12/22 00:27:35;;;;;;;5.45;1.02;;;;;;;;;;4974645;28;20039;-67
2023/12/22 00:30:00;;;;;;;12.43;1.37;;;;;;;;;;4973582;28;20038;-68
2023/12/22 00:32:25;;;;;;;5.40;0.75;;;;;;;;;;4979079;28;20396;-67
2023/12/22 00:34:50;;;;;;;2.88;0.57;;;;;;;;;;4976707;28;20656;-67
2023/12/22 00:37:16;;;;;;;9.25;1.25;;;;;;;;;;4977767;28;20030;-67
2023/12/22 00:39:41;;;;;;;10.50;1.33;;;;;;;;;;4977714;28;20022;-67
2023/12/22 00:42:06;;;;;;;4.65;1.10;;;;;;;;;;4976758;28;20515;-67
2023/12/22 00:44:31;;;;;;;11.43;1.90;;;;;;;;;;4980566;28;20022;-67
2023/12/22 00:46:56;;;;;;;11.93;1.38;;;;;;;;;;4974417;28;20547;-68
2023/12/22 00:49:22;;;;;;;9.27;1.17;;;;;;;;;;4976245;28;20019;-67
2023/12/22 00:51:47;;;;;;;8.20;1.20;;;;;;;;;;4977529;28;20045;-67
2023/12/22 00:54:12;;;;;;;7.88;1.23;;;;;;;;;;4975145;28;20310;-67
2023/12/22 00:56:37;;;;;;;5.47;0.80;;;;;;;;;;4975684;28;20038;-67
2023/12/22 00:59:02;;;;;;;17.00;2.17;;;;;;;;;;4973488;28;20357;-67
2023/12/22 01:01:28;;;;;;;10.77;1.00;;;;;;;;;;4976093;28;20277;-67
2023/12/22 01:03:53;;;;;;;9.85;1.10;;;;;;;;;;4976113;28;20408;-67
2023/12/22 01:06:18;;;;;;;6.27;1.20;;;;;;;;;;4978075;28;20064;-67
2023/12/22 01:08:43;;;;;;;6.50;0.83;;;;;;;;;;4975786;28;20309;-67
2023/12/22 01:11:09;;;;;;;8.05;1.15;;;;;;;;;;4978679;28;20331;-67
2023/12/22 01:13:34;;;;;;;5.72;1.00;;;;;;;;;;4970299;28;20011;-67
2023/12/22 01:15:59;;;;;;;9.55;0.82;;;;;;;;;;4982321;28;20030;-68
2023/12/22 01:18:28;;;;;;;8.88;1.50;;;;;;;;;;4978777;28;20072;-67
2023/12/22 01:20:54;;;;;;;5.20;1.10;;;;;;;;;;4985457;28;20031;-67
2023/12/22 01:23:19;;;;;;;6.20;1.70;;;;;;;;;;4972926;28;20326;-68
2023/12/22 01:25:44;;;;;;;4.10;0.90;;;;;;;;;;4977994;28;20669;-67
2023/12/22 01:28:09;;;;;;;10.07;1.67;;;;;;;;;;4976080;28;20297;-68
2023/12/22 01:30:35;;;;;;;10.67;2.63;;;;;;;;;;4983091;28;20652;-67
2023/12/22 01:33:00;;;;;;;14.52;1.42;;;;;;;;;;4975748;28;20294;-67
2023/12/22 01:35:25;;;;;;;10.70;1.33;;;;;;;;;;4973653;28;20069;-68
2023/12/22 01:37:51;;;;;;;9.73;1.27;;;;;;;;;;4977246;28;20027;-67
2023/12/22 01:40:16;;;;;;;7.28;1.45;;;;;;;;;;4976428;28;20328;-68
2023/12/22 01:42:41;;;;;;;7.65;1.33;;;;;;;;;;4976740;28;20023;-67
2023/12/22 01:45:07;;;;;;;7.35;2.10;;;;;;;;;;4970996;28;20038;-68
2023/12/22 01:47:33;;;;;;;12.00;1.15;;;;;;;;;;4979616;28;20018;-68
2023/12/22 01:49:58;;;;;;;10.30;1.58;;;;;;;;;;4979199;28;20059;-67
2023/12/22 01:52:24;;;;;;;20.65;2.22;;;;;;;;;;4979780;28;20022;-67
2023/12/22 01:54:49;;;;;;;13.13;2.13;;;;;;;;;;4984352;28;20497;-67
2023/12/22 01:57:17;;;;;;;7.15;1.00;;;;;;;;;;4976960;28;20121;-67
2023/12/22 01:59:42;;;;;;;13.02;1.52;;;;;;;;;;4979600;28;20072;-67
2023/12/22 02:02:07;;;;;;;13.00;2.33;;;;;;;;;;4973782;28;20121;-67
2023/12/22 02:04:33;;;;;;;14.93;1.40;;;;;;;;;;4970871;28;20022;-67
2023/12/22 02:07:01;;;;;;;11.70;2.15;;;;;;;;;;4977443;28;20408;-67
2023/12/22 02:09:26;;;;;;;6.28;1.27;;;;;;;;;;4981342;28;20023;-67
2023/12/22 02:11:51;;;;;;;8.68;2.15;;;;;;;;;;4977507;28;20029;-67
2023/12/22 02:14:16;;;;;;;12.37;2.90;;;;;;;;;;4969314;28;20022;-67
2023/12/22 02:16:53;;;;;;;7.95;1.60;;;;;;;;;;4982335;28;20332;-68
2023/12/22 02:19:18;;;;;;;10.65;1.65;;;;;;;;;;4976036;28;20042;-67
2023/12/22 02:22:03;;;;;;;8.95;1.55;;;;;;;;;;4978499;28;20026;-67
2023/12/22 02:24:30;;;;;;;11.00;2.15;;;;;;;;;;4977271;28;20034;-67
2023/12/22 02:26:57;;;;;;;12.63;2.30;;;;;;;;;;4982885;28;20025;-67
2023/12/22 02:29:23;;;;;;;8.90;1.52;;;;;;;;;;4972673;28;20094;-68
2023/12/22 02:31:51;;;;;;;13.80;1.88;;;;;;;;;;4978816;28;20029;-67
2023/12/22 02:34:19;;;;;;;12.00;1.20;;;;;;;;;;4978682;28;20101;-68
2023/12/22 02:36:44;;;;;;;6.20;1.50;;;;;;;;;;4982128;28;20034;-67
2023/12/22 02:39:10;;;;;;;9.90;1.80;;;;;;;;;;4979503;28;20034;-68
2023/12/22 02:41:36;;;;;;;13.43;2.35;;;;;;;;;;4986945;28;20095;-67
2023/12/22 02:44:01;;;;;;;19.98;1.77;;;;;;;;;;4980011;28;20034;-67
2023/12/22 02:46:26;;;;;;;38.75;6.47;;;;;;;;;;4977753;28;20146;-68
2023/12/22 02:48:51;;;;;;;13.73;1.95;;;;;;;;;;4975352;28;20023;-67
2023/12/22 02:51:16;;;;;;;17.03;1.50;;;;;;;;;;4983148;28;20036;-67
2023/12/22 02:53:42;;;;;;;17.13;2.80;;;;;;;;;;4987043;28;20253;-67
2023/12/22 02:56:07;;;;;;;11.07;1.33;;;;;;;;;;4995492;28;20354;-67
2023/12/22 02:58:32;;;;;;;19.20;1.70;;;;;;;;;;5030813;28;20262;-67
2023/12/22 03:00:57;;;;;;;10.50;1.13;;;;;;;;;;4984197;28;20813;-67
2023/12/22 03:03:22;;;;;;;14.10;2.30;;;;;;;;;;5000110;28;20280;-67
2023/12/22 03:05:47;;;;;;;15.70;2.83;;;;;;;;;;5001526;28;20851;-68
2023/12/22 03:08:13;;;;;;;7.90;1.50;;;;;;;;;;5001988;28;20357;-67
2023/12/22 03:10:38;;;;;;;9.30;1.80;;;;;;;;;;5004067;28;20770;-68
2023/12/22 03:13:03;;;;;;;11.57;1.73;;;;;;;;;;5015144;28;20301;-67
2023/12/22 03:15:28;;;;;;;10.47;1.10;;;;;;;;;;4977594;28;20972;-67
2023/12/22 03:17:53;;;;;;;17.33;2.33;;;;;;;;;;4975159;28;20281;-67
2023/12/22 03:20:18;;;;;;;13.30;2.13;;;;;;;;;;4974472;28;20775;-68
2023/12/22 03:22:43;;;;;;;14.70;1.93;;;;;;;;;;4981828;28;20293;-67
2023/12/22 03:25:09;;;;;;;20.20;2.37;;;;;;;;;;4974819;28;20377;-67
2023/12/22 03:27:34;;;;;;;20.77;2.88;;;;;;;;;;5010113;28;20258;-67
2023/12/22 03:29:59;;;;;;;12.93;1.60;;;;;;;;;;4975328;28;20542;-68
2023/12/22 03:32:24;;;;;;;17.55;2.15;;;;;;;;;;4980746;28;20269;-68
2023/12/22 03:34:49;;;;;;;10.85;1.63;;;;;;;;;;4979113;28;20439;-67
2023/12/22 03:37:14;;;;;;;23.00;2.00;;;;;;;;;;4982671;28;20405;-68
2023/12/22 03:39:40;;;;;;;12.30;2.43;;;;;;;;;;4981536;28;20269;-67
2023/12/22 03:42:05;;;;;;;12.43;1.80;;;;;;;;;;4978988;28;20749;-68
2023/12/22 03:44:30;;;;;;;10.55;1.60;;;;;;;;;;4978185;28;20266;-68
2023/12/22 03:46:56;;;;;;;23.85;3.13;;;;;;;;;;4980341;28;20045;-68
2023/12/22 03:49:21;;;;;;;13.45;4.00;;;;;;;;;;4983249;28;20051;-68
2023/12/22 03:51:46;;;;;;;13.35;1.90;;;;;;;;;;4982391;28;20385;-68
2023/12/22 03:54:11;;;;;;;22.37;2.40;;;;;;;;;;4978814;28;21301;-68
2023/12/22 03:56:36;;;;;;;27.17;4.53;;;;;;;;;;4973850;28;20258;-68
2023/12/22 03:59:02;;;;;;;19.00;1.87;;;;;;;;;;4980787;28;20023;-67
2023/12/22 04:01:27;;;;;;;19.73;2.53;;;;;;;;;;4980381;28;20984;-68
2023/12/22 04:03:52;;;;;;;18.88;2.47;;;;;;;;;;4982924;28;20032;-68
2023/12/22 04:06:17;;;;;;;18.00;2.75;;;;;;;;;;4976119;28;20027;-68
2023/12/22 04:08:43;;;;;;;12.82;2.05;;;;;;;;;;4983579;28;20010;-68
2023/12/22 04:11:08;;;;;;;24.60;3.20;;;;;;;;;;4977033;28;20482;-68
2023/12/22 04:13:33;;;;;;;20.30;2.53;;;;;;;;;;4982622;28;20018;-68
2023/12/22 04:15:58;;;;;;;21.73;2.47;;;;;;;;;;4977271;28;20368;-67
2023/12/22 04:18:23;;;;;;;18.67;4.00;;;;;;;;;;4982724;28;20273;-67
2023/12/22 04:20:51;;;;;;;10.30;2.43;;;;;;;;;;4980953;28;20084;-68
2023/12/22 04:23:16;;;;;;;17.40;2.78;;;;;;;;;;4986164;28;20270;-67
2023/12/22 04:25:41;;;;;;;18.80;2.60;;;;;;;;;;4972779;28;20076;-68
2023/12/22 04:28:07;;;;;;;15.43;2.63;;;;;;;;;;4980525;28;20031;-68
2023/12/22 04:30:32;;;;;;;22.47;3.07;;;;;;;;;;4979789;28;20333;-69
2023/12/22 04:32:57;;;;;;;23.65;3.20;;;;;;;;;;4978019;28;20316;-68
2023/12/22 04:35:22;;;;;;;15.80;2.70;;;;;;;;;;4973314;28;20031;-68
2023/12/22 04:37:47;;;;;;;16.60;3.05;;;;;;;;;;4982577;28;20372;-68
2023/12/22 04:40:12;;;;;;;14.55;2.92;;;;;;;;;;4983363;28;20041;-68
2023/12/22 04:42:38;;;;;;;8.87;1.77;;;;;;;;;;4978577;28;20633;-68
2023/12/22 04:45:03;;;;;;;16.17;2.50;;;;;;;;;;4971023;28;20335;-67
2023/12/22 04:47:28;;;;;;;17.63;2.53;;;;;;;;;;4990592;28;20257;-67
2023/12/22 04:49:53;;;;;;;9.83;1.50;;;;;;;;;;4980395;28;20374;-67
2023/12/22 04:52:19;;;;;;;15.50;2.83;;;;;;;;;;4978165;28;20267;-68
2023/12/22 04:54:44;;;;;;;17.63;2.03;;;;;;;;;;4974380;28;20636;-67
2023/12/22 04:57:09;;;;;;;14.20;2.88;;;;;;;;;;4978094;28;20027;-67
2023/12/22 04:59:34;;;;;;;12.65;2.47;;;;;;;;;;4981878;28;20011;-68
2023/12/22 05:01:59;;;;;;;22.93;3.03;;;;;;;;;;4978290;28;20121;-67
2023/12/22 05:04:25;;;;;;;13.48;2.70;;;;;;;;;;4984883;28;20277;-67
2023/12/22 05:06:50;;;;;;;21.15;2.78;;;;;;;;;;4976613;28;20035;-67
2023/12/22 05:09:16;;;;;;;24.42;3.78;;;;;;;;;;4977681;28;20025;-67
2023/12/22 05:11:41;;;;;;;23.23;4.05;;;;;;;;;;4977183;28;20030;-67
2023/12/22 05:14:06;;;;;;;17.92;2.55;;;;;;;;;;4982616;28;20037;-68
2023/12/22 05:16:31;;;;;;;15.20;2.30;;;;;;;;;;4981727;28;20704;-68
2023/12/22 05:18:57;;;;;;;27.83;2.72;;;;;;;;;;4979232;28;20110;-67
2023/12/22 05:21:23;;;;;;;29.55;3.88;;;;;;;;;;4982553;28;20125;-67
2023/12/22 05:23:48;;;;;;;18.70;3.15;;;;;;;;;;4977481;28;20042;-67
2023/12/22 05:26:17;;;;;;;21.50;3.85;;;;;;;;;;4975965;28;20504;-67
2023/12/22 05:28:43;;;;;;;16.67;2.47;;;;;;;;;;4981739;28;20083;-68
2023/12/22 05:31:08;;;;;;;23.37;2.80;;;;;;;;;;4974846;28;20015;-68
2023/12/22 05:33:33;;;;;;;7.18;2.50;;;;;;;;;;4974312;28;20341;-68
2023/12/22 05:35:58;;;;;;;19.30;3.37;;;;;;;;;;4977512;28;20034;-67
2023/12/22 05:38:23;;;;;;;14.32;3.00;;;;;;;;;;4978504;28;20270;-68
2023/12/22 05:40:49;;;;;;;23.02;3.25;;;;;;;;;;4979469;28;20489;-68
2023/12/22 05:43:14;;;;;;;24.75;3.05;;;;;;;;;;4978352;28;20546;-68
2023/12/22 05:45:40;;;;;;;19.35;2.85;;;;;;;;;;4973265;28;20030;-68
2023/12/22 05:48:06;;;;;;;17.90;2.57;;;;;;;;;;4976664;28;20501;-68
2023/12/22 05:50:31;;;;;;;19.33;2.75;;;;;;;;;;4984045;28;20249;-68
2023/12/22 05:52:56;;;;;;;16.77;2.70;;;;;;;;;;4979867;28;20505;-67
2023/12/22 05:55:21;;;;;;;20.85;2.10;;;;;;;;;;4977138;28;20262;-68
2023/12/22 05:57:46;;;;;;;25.30;5.43;;;;;;;;;;4978279;28;20139;-67
2023/12/22 06:00:12;;;;;;;21.20;4.03;;;;;;;;;;4981928;28;20061;-68
2023/12/22 06:02:38;;;;;;;14.32;3.40;;;;;;;;;;4980639;28;20591;-67
2023/12/22 06:05:03;;;;;;;10.98;2.78;;;;;;;;;;4967721;28;20362;-67
2023/12/22 06:07:28;;;;;;;29.73;5.03;;;;;;;;;;4968363;28;20038;-68
2023/12/22 06:09:54;;;;;;;20.83;4.15;;;;;;;;;;5000769;28;20491;-67
2023/12/22 06:12:19;;;;;;;23.27;3.20;;;;;;;;;;4969454;28;20111;-67
2023/12/22 06:14:44;;;;;;;21.93;2.77;;;;;;;;;;4966169;28;20085;-68
2023/12/22 06:17:09;;;;;;;22.67;3.97;;;;;;;;;;4968626;28;20258;-68
2023/12/22 06:19:37;;;;;;;24.50;3.55;;;;;;;;;;4967629;28;20031;-67
2023/12/22 06:22:03;;;;;;;16.55;3.30;;;;;;;;;;4967779;28;20027;-68
2023/12/22 06:24:28;;;;;;;22.15;2.67;;;;;;;;;;5000813;28;20030;-67
2023/12/22 06:26:53;;;;;;;23.30;3.03;;;;;;;;;;4987058;28;20536;-67
2023/12/22 06:29:18;;;;;;;19.33;4.05;;;;;;;;;;4969153;28;20282;-68
2023/12/22 06:31:44;;;;;;;23.10;2.28;;;;;;;;;;4965450;28;20444;-68
2023/12/22 06:34:09;;;;;;;26.55;3.33;;;;;;;;;;4964607;28;20415;-69
2023/12/22 06:36:34;;;;;;;21.10;2.93;;;;;;;;;;4982594;28;20024;-68
2023/12/22 06:38:59;;;;;;;17.53;2.17;;;;;;;;;;4972607;28;20336;-67
2023/12/22 06:41:25;;;;;;;23.98;2.75;;;;;;;;;;4990732;28;20277;-68
2023/12/22 06:43:51;;;;;;;19.50;2.65;;;;;;;;;;4970193;28;20054;-68
2023/12/22 06:46:19;;;;;;;18.83;2.83;;;;;;;;;;4967376;28;20062;-67
2023/12/22 06:48:45;;;;;;;20.65;3.78;;;;;;;;;;4970688;28;20034;-69
2023/12/22 06:51:20;;;;;;;17.23;2.15;;;;;;;;;;4966514;28;20374;-69
2023/12/22 06:53:46;;;;;;;24.83;3.58;;;;;;;;;;4966401;28;20031;-69
2023/12/22 06:56:18;;;;;;;23.60;3.08;;;;;;;;;;4967332;28;20080;-69
2023/12/22 06:58:43;;;;;;;12.32;2.28;;;;;;;;;;4967099;28;20019;-69
2023/12/22 07:01:08;;;;;;;21.98;3.33;;;;;;;;;;4968209;28;20031;-69
2023/12/22 07:03:33;;;;;;;16.90;2.55;;;;;;;;;;4968054;28;20041;-69
2023/12/22 07:05:59;;;;;;;23.25;3.20;;;;;;;;;;4968969;28;20034;-69
2023/12/22 07:08:24;;;;;;;13.57;3.13;;;;;;;;;;4966810;28;20018;-69
2023/12/22 07:10:49;;;;;;;16.23;2.93;;;;;;;;;;4964851;28;20663;-67
2023/12/22 07:13:14;;;;;;;11.13;2.33;;;;;;;;;;4968544;28;20266;-68
2023/12/22 07:15:39;;;;;;;18.53;2.23;;;;;;;;;;4967121;28;20789;-67
2023/12/22 07:18:04;;;;;;;13.48;1.95;;;;;;;;;;4965790;28;20288;-67
2023/12/22 07:20:30;;;;;;;13.15;2.90;;;;;;;;;;4967873;28;20060;-67
2023/12/22 07:22:56;;;;;;;21.27;3.40;;;;;;;;;;4970944;28;20482;-67
2023/12/22 07:25:21;;;;;;;9.88;2.53;;;;;;;;;;4969683;28;20026;-67
2023/12/22 07:27:46;;;;;;;15.63;2.72;;;;;;;;;;4965773;28;20481;-68
2023/12/22 07:30:15;;;;;;;6.30;2.08;;;;;;;;;;4966466;28;20431;-67
2023/12/22 07:32:40;;;;;;;12.75;2.13;;;;;;;;;;4967434;28;20057;-67
2023/12/22 07:35:07;;;;;;;19.43;3.37;;;;;;;;;;4969262;28;20059;-68
2023/12/22 07:37:34;;;;;;;11.88;1.65;;;;;;;;;;4965461;28;20274;-67
2023/12/22 07:40:00;;;;;;;15.63;1.77;;;;;;;;;;4963831;28;20106;-67
2023/12/22 07:42:25;;;;;;;10.60;1.87;;;;;;;;;;4965897;28;20097;-67
2023/12/22 07:44:50;;;;;;;13.55;1.55;;;;;;;;;;4966460;28;20813;-68
2023/12/22 07:47:15;;;;;;;6.37;1.70;;;;;;;;;;4967785;28;20027;-68
2023/12/22 07:49:41;;;;;;;16.57;2.57;;;;;;;;;;4976750;28;20274;-68
2023/12/22 07:52:06;;;;;;;18.67;1.92;;;;;;;;;;4963659;28;20262;-68
2023/12/22 07:54:31;;;;;;;8.47;1.43;;;;;;;;;;4969068;28;20038;-68
2023/12/22 07:56:56;;;;;;;17.33;2.07;;;;;;;;;;4963865;28;20351;-67
2023/12/22 07:59:21;;;;;;;15.85;1.80;;;;;;;;;;4969422;28;20262;-68
2023/12/22 08:01:46;;;;;;;14.80;2.30;;;;;;;;;;4967356;28;20035;-67
2023/12/22 08:04:12;;;;;;;23.53;3.27;;;;;;;;;;4968876;28;20269;-68
2023/12/22 08:06:37;;;;;;;17.57;2.43;;;;;;;;;;4970794;28;20288;-68
2023/12/22 08:09:02;;;;;;;19.92;2.75;;;;;;;;;;4969079;28;20274;-68
2023/12/22 08:11:28;;;;;;;13.48;2.53;;;;;;;;;;4971845;28;20105;-68
2023/12/22 08:13:53;;;;;;;29.90;3.75;;;;;;;;;;4970876;28;20378;-67
2023/12/22 08:16:18;;;;;;;26.25;4.40;;;;;;;;;;4973328;28;20110;-68
2023/12/22 08:18:44;;;;;;;28.03;3.77;;;;;;;;;;4971331;28;20080;-68
2023/12/22 08:21:09;;;;;;;17.17;3.67;;;;;;;;;;4971472;28;20281;-68
2023/12/22 08:23:34;;;;;;;32.15;4.35;;;;;;;;;;4967942;28;20504;-68
2023/12/22 08:26:00;;;;;;;36.03;4.93;;;;;;;;;;4968238;28;20026;-68
2023/12/22 08:28:25;;;;;;;33.23;5.33;;;;;;;;;;4970366;28;20029;-68
2023/12/22 08:30:51;;;;;;;42.42;7.05;;;;;;;;;;4971378;28;20285;-68
2023/12/22 08:33:16;;;;;;;36.88;7.93;;;;;;;;;;4967340;28;20048;-68
2023/12/22 08:35:42;;;;;;;28.70;3.83;;;;;;;;;;4971055;28;20121;-68
2023/12/22 08:38:07;;;;;;;35.97;6.40;;;;;;;;;;4972750;28;20285;-68
2023/12/22 08:40:33;;;;;;;38.05;5.03;;;;;;;;;;4971517;28;20109;-68
2023/12/22 08:42:59;;;;;;;47.43;6.53;;;;;;;;;;4972227;28;20148;-68
2023/12/22 08:45:26;;;;;;;33.70;5.68;;;;;;;;;;4974456;28;20637;-68
2023/12/22 08:47:51;;;;;;;51.95;7.40;;;;;;;;;;4970081;28;20577;-68
2023/12/22 08:50:16;;;;;;;46.03;6.77;;;;;;;;;;4971786;28;20065;-68
2023/12/22 08:52:41;;;;;;;45.97;7.28;;;;;;;;;;4972072;28;20269;-68
2023/12/22 08:55:07;;;;;;;52.97;7.50;;;;;;;;;;4970378;28;20474;-68
2023/12/22 08:57:32;;;;;;;51.25;6.57;;;;;;;;;;4982049;28;20042;-68
2023/12/22 08:59:57;;;;;;;43.40;6.20;;;;;;;;;;4972453;28;20429;-68
2023/12/22 09:02:22;;;;;;;48.15;5.68;;;;;;;;;;4967567;28;20319;-68
2023/12/22 09:04:47;;;;;;;42.47;5.78;;;;;;;;;;4979388;28;20058;-68
2023/12/22 09:07:13;;;;;;;43.30;6.10;;;;;;;;;;4967807;28;20030;-68
2023/12/22 09:09:38;;;;;;;43.00;5.87;;;;;;;;;;4969603;28;20269;-68
2023/12/22 09:12:04;;;;;;;32.63;5.37;;;;;;;;;;4969976;28;20323;-67
2023/12/22 09:14:29;;;;;;;44.50;6.55;;;;;;;;;;4968225;28;20283;-68
2023/12/22 09:16:55;;;;;;;47.53;10.30;;;;;;;;;;4970700;28;20023;-68
2023/12/22 09:19:21;;;;;;;47.90;6.53;;;;;;;;;;4974170;28;20033;-67
2023/12/22 09:21:46;;;;;;;41.83;6.15;;;;;;;;;;4963726;28;20026;-67
2023/12/22 09:24:12;;;;;;;55.73;6.83;;;;;;;;;;4971996;28;20054;-67
2023/12/22 09:26:37;;;;;;;39.15;3.97;;;;;;;;;;4983064;28;20347;-69
2023/12/22 09:29:02;;;;;;;38.22;5.63;;;;;;;;;;4967613;28;20678;-68
2023/12/22 09:31:27;;;;;;;43.33;5.53;;;;;;;;;;4972255;28;20084;-68
2023/12/22 09:33:53;;;;;;;39.80;6.13;;;;;;;;;;4972298;28;20250;-68
2023/12/22 09:36:18;;;;;;;28.73;3.67;;;;;;;;;;4973446;28;20023;-67
2023/12/22 09:38:43;;;;;;;27.38;4.60;;;;;;;;;;4963980;28;20023;-67
2023/12/22 09:41:10;;;;;;;47.92;6.10;;;;;;;;;;4967120;28;20027;-67
2023/12/22 09:43:36;;;;;;;44.30;6.72;;;;;;;;;;4974853;28;20034;-65
2023/12/22 09:46:02;;;;;;;28.30;6.43;;;;;;;;;;4969948;28;20470;-66
2023/12/22 09:48:28;;;;;;;45.70;6.50;;;;;;;;;;4971206;28;20068;-65
2023/12/22 09:50:54;;;;;;;34.28;7.07;;;;;;;;;;4974098;28;20019;-68
2023/12/22 09:53:19;;;;;;;41.97;5.60;;;;;;;;;;4975225;28;20030;-67
2023/12/22 09:55:45;;;;;;;24.92;5.10;;;;;;;;;;4970793;28;20523;-67
2023/12/22 09:58:12;;;;;;;37.95;5.63;;;;;;;;;;4970994;28;20026;-67
2023/12/22 10:00:37;;;;;;;19.83;3.92;;;;;;;;;;4974486;28;20071;-68
2023/12/22 10:03:05;;;;;;;29.77;5.40;;;;;;;;;;4974326;28;20170;-68
2023/12/22 10:05:30;;;;;;;28.30;4.10;;;;;;;;;;4973998;28;20492;-67
2023/12/22 10:07:56;;;;;;;13.37;2.77;;;;;;;;;;4974728;28;20042;-68
2023/12/22 10:10:21;;;;;;;25.27;4.97;;;;;;;;;;4976121;28;20258;-68
2023/12/22 10:12:47;;;;;;;26.45;5.07;;;;;;;;;;4972043;28;20061;-67
2023/12/22 10:15:12;;;;;;;23.70;5.00;;;;;;;;;;4973682;28;20389;-68
2023/12/22 10:17:38;;;;;;;29.35;4.40;;;;;;;;;;4973270;28;20030;-68
2023/12/22 10:20:03;;;;;;;23.02;3.75;;;;;;;;;;4974909;28;20035;-68
2023/12/22 10:22:28;;;;;;;29.48;4.65;;;;;;;;;;4974173;28;20026;-68
2023/12/22 10:24:53;;;;;;;31.43;4.13;;;;;;;;;;4974537;28;20027;-68
2023/12/22 10:27:22;;;;;;;20.55;2.97;;;;;;;;;;4975883;28;20289;-68
2023/12/22 10:29:54;;;;;;;14.48;2.70;;;;;;;;;;4974597;28;20040;-68
2023/12/22 10:32:19;;;;;;;15.07;3.50;;;;;;;;;;4968867;28;20531;-68
2023/12/22 10:34:45;;;;;;;14.23;2.97;;;;;;;;;;4966869;28;20039;-68
2023/12/22 10:37:10;;;;;;;17.07;3.77;;;;;;;;;;4980513;28;20029;-68
2023/12/22 10:39:36;;;;;;;16.70;3.10;;;;;;;;;;4968440;28;20274;-68
2023/12/22 10:42:02;;;;;;;10.02;2.75;;;;;;;;;;4977303;28;20103;-68
2023/12/22 10:44:28;;;;;;;19.42;3.30;;;;;;;;;;4968656;28;20117;-68
2023/12/22 10:46:54;;;;;;;12.13;3.50;;;;;;;;;;4967696;28;20363;-68
2023/12/22 10:49:19;;;;;;;13.23;2.28;;;;;;;;;;4963777;28;20041;-68
2023/12/22 10:51:45;;;;;;;8.48;2.15;;;;;;;;;;4970630;28;20023;-68
2023/12/22 10:54:10;;;;;;;11.53;3.00;;;;;;;;;;4967601;28;20030;-68
2023/12/22 10:56:35;;;;;;;13.33;2.60;;;;;;;;;;4970645;28;20297;-68
2023/12/22 10:59:01;;;;;;;7.90;2.40;;;;;;;;;;4983097;28;20346;-68
2023/12/22 11:01:29;;;;;;;11.50;2.58;;;;;;;;;;4973536;28;20402;-68
2023/12/22 11:03:57;;;;;;;8.75;2.45;;;;;;;;;;4975344;28;20397;-68
2023/12/22 11:06:26;;;;;;;15.38;2.67;;;;;;;;;;4974348;28;20023;-67
2023/12/22 11:08:52;;;;;;;8.75;2.25;;;;;;;;;;4976841;28;20842;-68
2023/12/22 11:11:24;;;;;;;9.13;2.65;;;;;;;;;;4968088;28;20102;-68
2023/12/22 11:13:50;;;;;;;10.02;2.47;;;;;;;;;;4969167;28;20375;-68
2023/12/22 11:16:18;;;;;;;8.40;2.35;;;;;;;;;;4979068;28;20168;-68
2023/12/22 11:18:43;;;;;;;9.73;2.42;;;;;;;;;;4988146;28;20017;-68
2023/12/22 11:21:09;;;;;;;7.22;1.80;;;;;;;;;;4987500;28;20030;-68
2023/12/22 11:23:35;;;;;;;5.82;2.45;;;;;;;;;;4967570;28;20031;-68
2023/12/22 11:26:01;;;;;;;4.95;1.80;;;;;;;;;;4967602;28;20505;-68
2023/12/22 11:28:27;;;;;;;6.93;1.83;;;;;;;;;;4971514;28;20089;-68
2023/12/22 11:30:53;;;;;;;5.38;2.17;;;;;;;;;;4968864;28;20023;-68
2023/12/22 11:33:19;;;;;;;4.85;1.73;;;;;;;;;;4971773;28;20412;-68
2023/12/22 11:35:46;;;;;;;10.15;1.75;;;;;;;;;;4970382;28;20026;-68
2023/12/22 11:38:11;;;;;;;9.75;1.70;;;;;;;;;;4970580;28;20031;-68
2023/12/22 11:40:36;;;;;;;11.23;1.88;;;;;;;;;;4969175;28;20041;-68
2023/12/22 11:43:02;;;;;;;7.15;1.77;;;;;;;;;;4969423;28;20035;-68
2023/12/22 11:45:30;;;;;;;7.50;1.65;;;;;;;;;;4974094;28;20041;-65
2023/12/22 11:47:55;;;;;;;7.03;2.10;;;;;;;;;;4978243;28;20048;-65
2023/12/22 11:50:27;;;;;;;4.93;1.80;;;;;;;;;;4980817;28;20026;-65
2023/12/22 11:52:52;;;;;;;5.82;1.90;;;;;;;;;;4972681;28;20027;-65
2023/12/22 11:55:38;;;;;;;3.77;1.30;;;;;;;;;;4985299;28;20018;-68
2023/12/22 11:58:23;;;;;;;7.22;2.30;;;;;;;;;;4973838;28;20274;-68
2023/12/22 12:00:52;;;;;;;6.72;1.70;;;;;;;;;;4971241;28;20132;-68
2023/12/22 12:03:18;;;;;;;9.97;1.83;;;;;;;;;;4969421;28;20060;-68
2023/12/22 12:05:43;;;;;;;5.00;1.35;;;;;;;;;;4971188;28;20064;-68
2023/12/22 12:08:08;;;;;;;8.37;2.03;;;;;;;;;;4971848;28;20026;-68
2023/12/22 12:10:33;;;;;;;3.33;1.58;;;;;;;;;;4972054;28;20911;-68
2023/12/22 12:13:08;;;;;;;8.88;2.15;;;;;;;;;;4973073;28;20054;-68
2023/12/22 12:15:33;;;;;;;5.70;1.50;;;;;;;;;;4973007;28;20098;-68
2023/12/22 12:17:59;;;;;;;7.13;2.42;;;;;;;;;;4973413;28;20590;-68
2023/12/22 12:20:24;;;;;;;7.55;1.90;;;;;;;;;;4975932;28;20022;-68
2023/12/22 12:22:49;;;;;;;7.90;1.50;;;;;;;;;;4978014;28;20026;-68
2023/12/22 12:25:14;;;;;;;5.15;1.58;;;;;;;;;;4972272;28;20023;-68
2023/12/22 12:27:40;;;;;;;6.68;1.95;;;;;;;;;;4981169;28;20014;-68
2023/12/22 12:30:14;;;;;;;12.60;1.08;;;;;;;;;;4970433;28;20929;-68
2023/12/22 12:32:46;;;;;;;7.25;1.75;;;;;;;;;;4970380;28;20088;-67
2023/12/22 12:35:12;;;;;;;12.52;2.03;;;;;;;;;;4973760;28;20019;-69
2023/12/22 12:37:37;;;;;;;6.97;1.27;;;;;;;;;;4969698;28;20125;-68
2023/12/22 12:40:04;;;;;;;6.15;1.20;;;;;;;;;;4968444;28;20050;-68
2023/12/22 12:42:31;;;;;;;5.25;0.95;;;;;;;;;;4972559;28;20030;-68
2023/12/22 12:44:56;;;;;;;7.80;1.52;;;;;;;;;;4973612;28;20064;-68
2023/12/22 12:47:21;;;;;;;9.07;1.60;;;;;;;;;;4972419;28;20027;-68
2023/12/22 12:49:46;;;;;;;9.33;1.47;;;;;;;;;;4974859;28;20621;-68
2023/12/22 12:52:12;;;;;;;11.50;1.77;;;;;;;;;;4968067;28;20297;-68
2023/12/22 12:54:37;;;;;;;8.32;1.30;;;;;;;;;;4971758;28;20262;-68
2023/12/22 12:57:02;;;;;;;5.07;1.15;;;;;;;;;;4974797;28;20531;-68
2023/12/22 12:59:27;;;;;;;5.25;0.93;;;;;;;;;;4976875;28;20520;-68
2023/12/22 13:01:53;;;;;;;3.63;1.30;;;;;;;;;;4973197;28;20032;-69
2023/12/22 13:04:18;;;;;;;9.38;1.38;;;;;;;;;;4968100;28;20360;-68
2023/12/22 13:06:44;;;;;;;7.23;1.60;;;;;;;;;;4968133;28;20084;-70
2023/12/22 13:09:09;;;;;;;5.57;1.23;;;;;;;;;;4966988;28;20258;-69
2023/12/22 13:11:36;;;;;;;6.97;1.55;;;;;;;;;;4966430;28;20035;-69
2023/12/22 13:14:01;;;;;;;9.15;1.83;;;;;;;;;;4967529;28;20015;-66
2023/12/22 13:16:29;;;;;;;5.90;1.50;;;;;;;;;;4967573;28;20031;-65
2023/12/22 13:18:54;;;;;;;11.65;1.98;;;;;;;;;;4974579;28;20022;-66
2023/12/22 13:21:20;;;;;;;11.55;1.42;;;;;;;;;;4968468;28;20046;-66
2023/12/22 13:23:45;;;;;;;5.07;1.08;;;;;;;;;;4967939;28;20513;-65
2023/12/22 13:26:19;;;;;;;9.80;1.77;;;;;;;;;;4968119;28;20678;-66
2023/12/22 13:28:44;;;;;;;6.20;1.58;;;;;;;;;;4968189;28;20262;-65
2023/12/22 13:31:18;;;;;;;8.80;1.27;;;;;;;;;;4969198;28;20545;-65
2023/12/22 13:33:43;;;;;;;7.57;1.23;;;;;;;;;;4964151;28;20023;-65
2023/12/22 13:36:09;;;;;;;8.73;1.10;;;;;;;;;;4967628;28;20050;-65
2023/12/22 13:38:34;;;;;;;8.75;1.35;;;;;;;;;;4972310;28;20084;-68
2023/12/22 13:41:01;;;;;;;7.65;1.50;;;;;;;;;;4968040;28;20035;-68
2023/12/22 13:43:29;;;;;;;4.53;1.00;;;;;;;;;;4967204;28;20027;-67
2023/12/22 13:45:55;;;;;;;4.20;1.13;;;;;;;;;;4964823;28;20033;-68
2023/12/22 13:48:20;;;;;;;6.63;1.00;;;;;;;;;;4967526;28;20094;-68
2023/12/22 13:50:54;;;;;;;6.80;1.88;;;;;;;;;;4965940;28;20027;-68
2023/12/22 13:53:19;;;;;;;8.85;1.50;;;;;;;;;;4968522;28;20023;-68
2023/12/22 13:55:53;;;;;;;4.63;1.77;;;;;;;;;;4974977;28;20033;-68
2023/12/22 13:58:18;;;;;;;7.32;1.55;;;;;;;;;;4969222;28;20258;-68
2023/12/22 14:00:44;;;;;;;9.33;1.50;;;;;;;;;;4970433;28;20029;-68
2023/12/22 14:03:10;;;;;;;15.38;1.58;;;;;;;;;;4964670;28;20341;-68
2023/12/22 14:05:35;;;;;;;11.52;2.20;;;;;;;;;;4966997;28;20152;-67
2023/12/22 14:08:00;;;;;;;6.37;1.10;;;;;;;;;;4965567;28;20087;-68
2023/12/22 14:10:25;;;;;;;4.30;0.90;;;;;;;;;;4961990;28;20652;-68
2023/12/22 14:12:50;;;;;;;9.90;1.40;;;;;;;;;;4965323;28;20266;-68
2023/12/22 14:15:16;;;;;;;11.48;2.20;;;;;;;;;;4967177;28;20307;-68
2023/12/22 14:17:44;;;;;;;6.90;1.70;;;;;;;;;;4965505;28;20031;-68
2023/12/22 14:20:09;;;;;;;9.40;0.90;;;;;;;;;;4967608;28;20617;-67
2023/12/22 14:22:35;;;;;;;4.68;1.27;;;;;;;;;;4964745;28;20023;-68
2023/12/22 14:25:00;;;;;;;8.55;1.88;;;;;;;;;;4968740;28;20508;-67